Time,TemperatureF,DewpointF,PressureIn,WindDirection,WindDirectionDegrees,WindSpeedMPH,WindSpeedGustMPH,Humidity,HourlyPrecipIn,Conditions,Clouds,dailyrainin,SoftwareType,DateUTC
2013-02-25 00:01:00,59.0,58.7,-100.00,NNE,22,2.3,4.3,99,0.02,,,0.00,,2013-02-25 06:01:00,
2013-02-25 00:06:00,59.0,58.5,-100.00,NNW,337,2.5,4.3,98,0.01,,,0.00,,2013-02-25 06:06:00,
2013-02-25 00:11:00,59.0,58.8,-100.00,NNW,337,3.1,6.7,99,0.01,,,0.00,,2013-02-25 06:11:00,
2013-02-25 00:16:00,59.1,58.9,-100.00,NW,315,3.3,6.7,99,0.01,,,0.00,,2013-02-25 06:16:00,
2013-02-25 00:21:00,59.3,58.9,-100.00,NNW,337,2.9,6.5,98,0.01,,,0.00,,2013-02-25 06:21:00,
2013-02-25 00:26:00,59.5,59.2,-100.00,NNW,337,3.5,6.5,99,0.01,,,0.00,,2013-02-25 06:26:00,
2013-02-25 00:31:00,59.6,59.4,-100.00,NNW,337,3.5,6.5,99,0.01,,,0.00,,2013-02-25 06:31:00,
2013-02-25 00:36:00,59.9,59.8,-100.00,NW,315,3.1,4.7,99,0.01,,,0.00,,2013-02-25 06:36:00,
2013-02-25 00:41:00,60.1,59.9,-100.00,NW,315,3.9,7.5,99,0.01,,,0.00,,2013-02-25 06:41:00,
2013-02-25 00:46:00,60.5,60.3,-100.00,NW,315,4.7,8.8,99,0.01,,,0.00,,2013-02-25 06:46:00,
2013-02-25 00:51:00,60.5,60.2,-100.00,NNW,337,5.5,9.6,98,0.02,,,0.01,,2013-02-25 06:51:00,
2013-02-25 00:56:00,60.6,60.3,-100.00,NW,315,6.5,11.8,98,0.02,,,0.01,,2013-02-25 06:56:00,
2013-02-25 01:01:00,60.6,60.3,-100.00,NW,315,5.5,9.5,98,0.02,,,0.02,,2013-02-25 07:01:00,
2013-02-25 01:06:00,60.6,60.3,-100.00,NW,315,4.6,9.5,98,0.02,,,0.02,,2013-02-25 07:06:00,
2013-02-25 01:11:00,60.6,60.4,-100.00,NNW,337,4.7,7.7,99,0.04,,,0.04,,2013-02-25 07:11:00,
2013-02-25 01:16:00,60.5,59.9,-100.00,North,0,4.6,7.7,97,0.06,,,0.06,,2013-02-25 07:16:00,
2013-02-25 01:21:00,60.3,60.0,-100.00,North,0,4.2,7.4,98,0.20,,,0.20,,2013-02-25 07:21:00,
2013-02-25 01:26:00,60.2,59.9,-100.00,North,0,4.8,9.5,98,0.24,,,0.24,,2013-02-25 07:26:00,
2013-02-25 01:31:00,60.2,59.9,-100.00,North,0,4.6,8.8,98,0.24,,,0.24,,2013-02-25 07:31:00,
2013-02-25 01:36:00,60.2,60.0,-100.00,NNW,337,4.7,9.8,99,0.24,,,0.24,,2013-02-25 07:36:00,
2013-02-25 01:41:00,60.3,60.0,-100.00,NNW,337,4.8,8.3,98,0.24,,,0.24,,2013-02-25 07:41:00,
2013-02-25 01:46:00,60.2,59.8,-100.00,North,0,4.7,8.3,98,0.23,,,0.24,,2013-02-25 07:46:00,
2013-02-25 01:51:00,60.2,59.9,-100.00,North,0,4.1,7.4,98,0.23,,,0.24,,2013-02-25 07:51:00,
2013-02-25 01:56:00,60.2,60.0,-100.00,NW,315,4.9,9.0,99,0.23,,,0.24,,2013-02-25 07:56:00,
2013-02-25 02:01:00,60.3,60.3,-100.00,NNW,337,5.1,9.0,99,0.24,,,0.26,,2013-02-25 08:01:00,
2013-02-25 02:06:00,60.3,60.3,-100.00,NNW,337,5.8,12.0,100,0.23,,,0.26,,2013-02-25 08:06:00,
2013-02-25 02:11:00,60.6,60.4,-100.00,NNW,337,6.4,12.0,99,0.22,,,0.27,,2013-02-25 08:11:00,
2013-02-25 02:16:00,60.7,60.5,-100.00,NNW,337,7.7,11.2,99,0.18,,,0.27,,2013-02-25 08:16:00,
2013-02-25 02:21:00,60.7,60.6,-100.00,NNW,337,7.1,11.2,99,0.07,,,0.27,,2013-02-25 08:21:00,
2013-02-25 02:26:00,60.7,60.7,-100.00,East,90,6.0,12.6,100,0.03,,,0.27,,2013-02-25 08:26:00,
2013-02-25 02:31:00,60.7,60.0,-100.00,SSW,202,6.6,12.6,97,0.03,,,0.27,,2013-02-25 08:31:00,
2013-02-25 02:36:00,61.0,60.6,-100.00,ESE,112,3.5,8.3,98,0.03,,,0.27,,2013-02-25 08:36:00,
2013-02-25 02:41:00,61.4,60.5,-100.00,NNW,337,2.7,5.3,97,0.03,,,0.27,,2013-02-25 08:41:00,
2013-02-25 02:46:00,61.0,60.2,-100.00,NNW,337,3.2,7.1,96,0.03,,,0.27,,2013-02-25 08:46:00,
2013-02-25 02:51:00,60.8,59.8,-100.00,ESE,112,5.4,9.9,96,0.04,,,0.28,,2013-02-25 08:51:00,
2013-02-25 02:56:00,60.0,59.6,-100.00,East,90,5.0,9.9,98,0.24,,,0.48,,2013-02-25 08:56:00,
2013-02-25 03:02:00,59.9,59.4,-100.00,North,0,3.7,6.5,98,0.50,,,0.76,,2013-02-25 09:02:00,
2013-02-25 03:07:00,60.1,59.5,-100.00,ESE,112,4.2,9.9,97,0.58,,,0.84,,2013-02-25 09:07:00,
2013-02-25 03:12:00,59.7,59.4,-100.00,East,90,5.5,10.0,99,0.70,,,0.97,,2013-02-25 09:12:00,
2013-02-25 03:17:00,59.7,59.5,-100.00,NNE,22,5.6,10.2,99,0.77,,,1.04,,2013-02-25 09:17:00,
2013-02-25 03:22:00,59.6,59.4,-100.00,SSE,157,3.3,5.2,99,0.83,,,1.10,,2013-02-25 09:22:00,
2013-02-25 03:27:00,59.6,59.5,-100.00,SSW,202,3.1,4.8,99,0.85,,,1.12,,2013-02-25 09:27:00,
2013-02-25 03:32:00,59.2,59.2,-100.00,SSW,202,4.1,8.3,100,1.02,,,1.29,,2013-02-25 09:32:00,
2013-02-25 03:37:00,58.9,58.9,-100.00,SE,135,3.8,8.3,100,1.31,,,1.58,,2013-02-25 09:37:00,
2013-02-25 03:42:00,58.4,58.4,-100.00,NNE,22,4.3,7.2,100,1.41,,,1.68,,2013-02-25 09:42:00,
2013-02-25 03:47:00,58.4,58.4,-100.00,North,-999,-999.0,-999.0,100,1.43,,,1.70,,2013-02-25 09:47:00,
2013-02-25 03:52:00,58.4,58.4,-100.00,North,-999,-999.0,-999.0,100,1.39,,,1.70,,2013-02-25 09:52:00,
2013-02-25 03:57:00,58.7,58.6,-100.00,NNW,337,5.7,9.1,99,1.15,,,1.70,,2013-02-25 09:57:00,
2013-02-25 04:02:00,59.0,59.0,-100.00,NNW,337,6.1,10.5,100,0.92,,,1.71,,2013-02-25 10:02:00,
2013-02-25 04:07:00,-999.0,-99.9,-100.00,North,-999,-999.0,-999.0,-999,-99.99,,,-99.99,,2013-02-25 10:07:00,
2013-02-25 04:15:00,-999.0,-99.9,-100.00,North,-999,-999.0,-999.0,-999,-99.99,,,-99.99,,2013-02-25 10:15:00,
2013-02-25 04:20:00,-999.0,-99.9,-100.00,North,-999,-999.0,-999.0,-999,-99.99,,,-99.99,,2013-02-25 10:20:00,
2013-02-25 04:25:00,-999.0,-99.9,-100.00,North,-999,-999.0,-999.0,-999,-99.99,,,-99.99,,2013-02-25 10:25:00,
2013-02-25 04:30:00,-999.0,-99.9,-100.00,North,-999,-999.0,-999.0,-999,-99.99,,,-99.99,,2013-02-25 10:30:00,
2013-02-25 04:35:00,-999.0,-99.9,-100.00,North,-999,-999.0,-999.0,-999,-99.99,,,-99.99,,2013-02-25 10:35:00,
2013-02-25 04:40:00,-999.0,-99.9,-100.00,North,-999,-999.0,-999.0,-999,-99.99,,,-99.99,,2013-02-25 10:40:00,
2013-02-25 04:45:00,-999.0,-99.9,-100.00,North,-999,-999.0,-999.0,-999,-99.99,,,-99.99,,2013-02-25 10:45:00,
2013-02-25 04:50:00,-999.0,-99.9,-100.00,North,-999,-999.0,-999.0,-999,-99.99,,,-99.99,,2013-02-25 10:50:00,
2013-02-25 04:55:00,-999.0,-99.9,-100.00,North,-999,-999.0,-999.0,-999,-99.99,,,-99.99,,2013-02-25 10:55:00,
2013-02-25 05:00:00,-999.0,-99.9,-100.00,North,-999,-999.0,-999.0,-999,-99.99,,,-99.99,,2013-02-25 11:00:00,
2013-02-25 05:05:00,-999.0,-99.9,-100.00,North,-999,-999.0,-999.0,-999,-99.99,,,-99.99,,2013-02-25 11:05:00,
2013-02-25 05:10:00,-999.0,-99.9,-100.00,North,-999,-999.0,-999.0,-999,-99.99,,,-99.99,,2013-02-25 11:10:00,
2013-02-25 05:15:00,-999.0,-99.9,-100.00,North,-999,-999.0,-999.0,-999,-99.99,,,-99.99,,2013-02-25 11:15:00,
2013-02-25 05:20:00,-999.0,-99.9,-100.00,North,-999,-999.0,-999.0,-999,-99.99,,,-99.99,,2013-02-25 11:20:00,
2013-02-25 05:25:00,-999.0,-99.9,-100.00,North,-999,-999.0,-999.0,-999,-99.99,,,-99.99,,2013-02-25 11:25:00,
2013-02-25 05:30:00,-999.0,-99.9,-100.00,North,-999,-999.0,-999.0,-999,-99.99,,,-99.99,,2013-02-25 11:30:00,
2013-02-25 05:35:00,-999.0,-99.9,-100.00,North,-999,-999.0,-999.0,-999,-99.99,,,-99.99,,2013-02-25 11:35:00,
2013-02-25 05:40:00,-999.0,-99.9,-100.00,North,-999,-999.0,-999.0,-999,-99.99,,,-99.99,,2013-02-25 11:40:00,
2013-02-25 05:45:00,-999.0,-99.9,-100.00,North,-999,-999.0,-999.0,-999,-99.99,,,-99.99,,2013-02-25 11:45:00,
2013-02-25 05:50:00,-999.0,-99.9,-100.00,North,-999,-999.0,-999.0,-999,-99.99,,,-99.99,,2013-02-25 11:50:00,
2013-02-25 05:55:00,-999.0,-99.9,-100.00,North,-999,-999.0,-999.0,-999,-99.99,,,-99.99,,2013-02-25 11:55:00,
2013-02-25 06:00:00,-999.0,-99.9,-100.00,North,-999,-999.0,-999.0,-999,-99.99,,,-99.99,,2013-02-25 12:00:00,
2013-02-25 06:05:00,-999.0,-99.9,-100.00,North,-999,-999.0,-999.0,-999,-99.99,,,-99.99,,2013-02-25 12:05:00,
2013-02-25 06:10:00,-999.0,-99.9,-100.00,North,-999,-999.0,-999.0,-999,-99.99,,,-99.99,,2013-02-25 12:10:00,
2013-02-25 06:15:00,-999.0,-99.9,-100.00,North,-999,-999.0,-999.0,-999,-99.99,,,-99.99,,2013-02-25 12:15:00,
2013-02-25 06:20:00,-999.0,-99.9,-100.00,North,-999,-999.0,-999.0,-999,-99.99,,,-99.99,,2013-02-25 12:20:00,
2013-02-25 06:25:00,-999.0,-99.9,-100.00,North,-999,-999.0,-999.0,-999,-99.99,,,-99.99,,2013-02-25 12:25:00,
2013-02-25 06:30:00,-999.0,-99.9,-100.00,North,-999,-999.0,-999.0,-999,-99.99,,,-99.99,,2013-02-25 12:30:00,
2013-02-25 06:35:00,-999.0,-99.9,-100.00,North,-999,-999.0,-999.0,-999,-99.99,,,-99.99,,2013-02-25 12:35:00,
2013-02-25 06:40:00,-999.0,-99.9,-100.00,North,-999,-999.0,-999.0,-999,-99.99,,,-99.99,,2013-02-25 12:40:00,
2013-02-25 06:46:00,-999.0,-99.9,-100.00,North,-999,-999.0,-999.0,-999,-99.99,,,-99.99,,2013-02-25 12:46:00,
2013-02-25 06:51:00,-999.0,-99.9,-100.00,North,-999,-999.0,-999.0,-999,-99.99,,,-99.99,,2013-02-25 12:51:00,
2013-02-25 06:56:00,-999.0,-99.9,-100.00,North,-999,-999.0,-999.0,-999,-99.99,,,-99.99,,2013-02-25 12:56:00,
2013-02-25 07:01:00,-999.0,-99.9,-100.00,North,-999,-999.0,-999.0,-999,-99.99,,,-99.99,,2013-02-25 13:01:00,
2013-02-25 07:06:00,-999.0,-99.9,-100.00,North,-999,-999.0,-999.0,-999,-99.99,,,-99.99,,2013-02-25 13:06:00,
2013-02-25 07:11:00,-999.0,-99.9,-100.00,North,-999,-999.0,-999.0,-999,-99.99,,,-99.99,,2013-02-25 13:11:00,
2013-02-25 07:16:00,-999.0,-99.9,-100.00,North,-999,-999.0,-999.0,-999,-99.99,,,-99.99,,2013-02-25 13:16:00,
2013-02-25 07:21:00,-999.0,-99.9,-100.00,North,-999,-999.0,-999.0,-999,-99.99,,,-99.99,,2013-02-25 13:21:00,
2013-02-25 07:26:00,-999.0,-99.9,-100.00,North,-999,-999.0,-999.0,-999,-99.99,,,-99.99,,2013-02-25 13:26:00,
2013-02-25 07:31:00,-999.0,-99.9,-100.00,North,-999,-999.0,-999.0,-999,-99.99,,,-99.99,,2013-02-25 13:31:00,
2013-02-25 07:36:00,-999.0,-99.9,-100.00,North,-999,-999.0,-999.0,-999,-99.99,,,-99.99,,2013-02-25 13:36:00,
2013-02-25 07:41:00,-999.0,-99.9,-100.00,North,-999,-999.0,-999.0,-999,-99.99,,,-99.99,,2013-02-25 13:41:00,
2013-02-25 07:46:00,-999.0,-99.9,-100.00,North,-999,-999.0,-999.0,-999,-99.99,,,-99.99,,2013-02-25 13:46:00,
2013-02-25 07:51:00,-999.0,-99.9,-100.00,North,-999,-999.0,-999.0,-999,-99.99,,,-99.99,,2013-02-25 13:51:00,
2013-02-25 07:57:00,-999.0,-99.9,-100.00,North,-999,-999.0,-999.0,-999,-99.99,,,-99.99,,2013-02-25 13:57:00,
2013-02-25 08:02:00,-999.0,-99.9,-100.00,North,-999,-999.0,-999.0,-999,-99.99,,,-99.99,,2013-02-25 14:02:00,
2013-02-25 08:07:00,-999.0,-99.9,-100.00,North,-999,-999.0,-999.0,-999,-99.99,,,-99.99,,2013-02-25 14:07:00,
2013-02-25 08:12:00,-999.0,-99.9,-100.00,North,-999,-999.0,-999.0,-999,-99.99,,,-99.99,,2013-02-25 14:12:00,
2013-02-25 08:17:00,-999.0,-99.9,-100.00,North,-999,-999.0,-999.0,-999,-99.99,,,-99.99,,2013-02-25 14:17:00,
2013-02-25 08:22:00,-999.0,-99.9,-100.00,North,-999,-999.0,-999.0,-999,-99.99,,,-99.99,,2013-02-25 14:22:00,
2013-02-25 08:27:00,-999.0,-99.9,-100.00,North,-999,-999.0,-999.0,-999,-99.99,,,-99.99,,2013-02-25 14:27:00,
2013-02-25 08:32:00,-999.0,-99.9,-100.00,North,-999,-999.0,-999.0,-999,-99.99,,,-99.99,,2013-02-25 14:32:00,
2013-02-25 08:37:00,-999.0,-99.9,-100.00,North,-999,-999.0,-999.0,-999,-99.99,,,-99.99,,2013-02-25 14:37:00,
2013-02-25 08:42:00,-999.0,-99.9,-100.00,North,-999,-999.0,-999.0,-999,-99.99,,,-99.99,,2013-02-25 14:42:00,
2013-02-25 08:47:00,-999.0,-99.9,-100.00,North,-999,-999.0,-999.0,-999,-99.99,,,-99.99,,2013-02-25 14:47:00,
2013-02-25 08:52:00,-999.0,-99.9,-100.00,North,-999,-999.0,-999.0,-999,-99.99,,,-99.99,,2013-02-25 14:52:00,
2013-02-25 08:57:00,-999.0,-99.9,-100.00,North,-999,-999.0,-999.0,-999,-99.99,,,-99.99,,2013-02-25 14:57:00,
2013-02-25 09:02:00,-999.0,-99.9,-100.00,North,-999,-999.0,-999.0,-999,-99.99,,,-99.99,,2013-02-25 15:02:00,
2013-02-25 09:07:00,-999.0,-99.9,-100.00,North,-999,-999.0,-999.0,-999,-99.99,,,-99.99,,2013-02-25 15:07:00,
2013-02-25 09:12:00,-999.0,-99.9,-100.00,North,-999,-999.0,-999.0,-999,-99.99,,,-99.99,,2013-02-25 15:12:00,
2013-02-25 09:17:00,-999.0,-99.9,-100.00,North,-999,-999.0,-999.0,-999,-99.99,,,-99.99,,2013-02-25 15:17:00,
2013-02-25 09:22:00,-999.0,-99.9,-100.00,North,-999,-999.0,-999.0,-999,-99.99,,,-99.99,,2013-02-25 15:22:00,
2013-02-25 09:28:00,-999.0,-99.9,-100.00,North,-999,-999.0,-999.0,-999,-99.99,,,-99.99,,2013-02-25 15:28:00,
2013-02-25 09:33:00,-999.0,-99.9,-100.00,North,-999,-999.0,-999.0,-999,-99.99,,,-99.99,,2013-02-25 15:33:00,
2013-02-25 09:38:00,-999.0,-99.9,-100.00,North,-999,-999.0,-999.0,-999,-99.99,,,-99.99,,2013-02-25 15:38:00,
2013-02-25 09:43:00,-999.0,-99.9,-100.00,North,-999,-999.0,-999.0,-999,-99.99,,,-99.99,,2013-02-25 15:43:00,
2013-02-25 09:48:00,-999.0,-99.9,-100.00,North,-999,-999.0,-999.0,-999,-99.99,,,-99.99,,2013-02-25 15:48:00,
2013-02-25 09:53:00,-999.0,-99.9,-100.00,North,-999,-999.0,-999.0,-999,-99.99,,,-99.99,,2013-02-25 15:53:00,
2013-02-25 09:58:00,-999.0,-99.9,-100.00,North,-999,-999.0,-999.0,-999,-99.99,,,-99.99,,2013-02-25 15:58:00,
2013-02-25 10:03:00,-999.0,-99.9,-100.00,North,-999,-999.0,-999.0,-999,-99.99,,,-99.99,,2013-02-25 16:03:00,
2013-02-25 10:08:00,-999.0,-99.9,-100.00,North,-999,-999.0,-999.0,-999,-99.99,,,-99.99,,2013-02-25 16:08:00,
2013-02-25 10:13:00,-999.0,-99.9,-100.00,North,-999,-999.0,-999.0,-999,-99.99,,,-99.99,,2013-02-25 16:13:00,
2013-02-25 10:18:00,-999.0,-99.9,-100.00,North,-999,-999.0,-999.0,-999,-99.99,,,-99.99,,2013-02-25 16:18:00,
2013-02-25 10:23:00,-999.0,-99.9,-100.00,North,-999,-999.0,-999.0,-999,-99.99,,,-99.99,,2013-02-25 16:23:00,
2013-02-25 10:28:00,-999.0,-99.9,-100.00,North,-999,-999.0,-999.0,-999,-99.99,,,-99.99,,2013-02-25 16:28:00,
2013-02-25 10:33:00,-999.0,-99.9,-100.00,North,-999,-999.0,-999.0,-999,-99.99,,,-99.99,,2013-02-25 16:33:00,
2013-02-25 10:38:00,-999.0,-99.9,-100.00,North,-999,-999.0,-999.0,-999,-99.99,,,-99.99,,2013-02-25 16:38:00,
2013-02-25 10:43:00,-999.0,-99.9,-100.00,North,-999,-999.0,-999.0,-999,-99.99,,,-99.99,,2013-02-25 16:43:00,
2013-02-25 10:48:00,-999.0,-99.9,-100.00,North,-999,-999.0,-999.0,-999,-99.99,,,-99.99,,2013-02-25 16:48:00,
2013-02-25 10:53:00,-999.0,-99.9,-100.00,North,-999,-999.0,-999.0,-999,-99.99,,,-99.99,,2013-02-25 16:53:00,
2013-02-25 10:58:00,-999.0,-99.9,-100.00,North,-999,-999.0,-999.0,-999,-99.99,,,-99.99,,2013-02-25 16:58:00,
2013-02-25 11:03:00,-999.0,-99.9,-100.00,North,-999,-999.0,-999.0,-999,-99.99,,,-99.99,,2013-02-25 17:03:00,
2013-02-25 11:08:00,-999.0,-99.9,-100.00,North,-999,-999.0,-999.0,-999,-99.99,,,-99.99,,2013-02-25 17:08:00,
2013-02-25 11:13:00,-999.0,-99.9,-100.00,North,-999,-999.0,-999.0,-999,-99.99,,,-99.99,,2013-02-25 17:13:00,
2013-02-25 11:18:00,-999.0,-99.9,-100.00,North,-999,-999.0,-999.0,-999,-99.99,,,-99.99,,2013-02-25 17:18:00,
2013-02-25 11:23:00,-999.0,-99.9,-100.00,North,-999,-999.0,-999.0,-999,-99.99,,,-99.99,,2013-02-25 17:23:00,
2013-02-25 11:28:00,-999.0,-99.9,-100.00,North,-999,-999.0,-999.0,-999,-99.99,,,-99.99,,2013-02-25 17:28:00,
2013-02-25 11:33:00,-999.0,-99.9,-100.00,North,-999,-999.0,-999.0,-999,-99.99,,,-99.99,,2013-02-25 17:33:00,
2013-02-25 11:38:00,-999.0,-99.9,-100.00,North,-999,-999.0,-999.0,-999,-99.99,,,-99.99,,2013-02-25 17:38:00,
2013-02-25 11:43:00,-999.0,-99.9,-100.00,North,-999,-999.0,-999.0,-999,-99.99,,,-99.99,,2013-02-25 17:43:00,
2013-02-25 11:48:00,-999.0,-99.9,-100.00,North,-999,-999.0,-999.0,-999,-99.99,,,-99.99,,2013-02-25 17:48:00,
2013-02-25 11:53:00,-999.0,-99.9,-100.00,North,-999,-999.0,-999.0,-999,-99.99,,,-99.99,,2013-02-25 17:53:00,
2013-02-25 11:58:00,-999.0,-99.9,-100.00,North,-999,-999.0,-999.0,-999,-99.99,,,-99.99,,2013-02-25 17:58:00,
2013-02-25 12:03:00,-999.0,-99.9,-100.00,North,-999,-999.0,-999.0,-999,-99.99,,,-99.99,,2013-02-25 18:03:00,
2013-02-25 12:08:00,-999.0,-99.9,-100.00,North,-999,-999.0,-999.0,-999,-99.99,,,-99.99,,2013-02-25 18:08:00,
2013-02-25 12:14:00,-999.0,-99.9,-100.00,North,-999,-999.0,-999.0,-999,-99.99,,,-99.99,,2013-02-25 18:14:00,
2013-02-25 12:19:00,-999.0,-99.9,-100.00,North,-999,-999.0,-999.0,-999,-99.99,,,-99.99,,2013-02-25 18:19:00,
2013-02-25 12:24:00,-999.0,-99.9,-100.00,North,-999,-999.0,-999.0,-999,-99.99,,,-99.99,,2013-02-25 18:24:00,
2013-02-25 12:29:00,-999.0,-99.9,-100.00,North,-999,-999.0,-999.0,-999,-99.99,,,-99.99,,2013-02-25 18:29:00,
2013-02-25 12:34:00,-999.0,-99.9,-100.00,North,-999,-999.0,-999.0,-999,-99.99,,,-99.99,,2013-02-25 18:34:00,
2013-02-25 12:39:00,-999.0,-99.9,-100.00,North,-999,-999.0,-999.0,-999,-99.99,,,-99.99,,2013-02-25 18:39:00,
2013-02-25 12:44:00,-999.0,-99.9,-100.00,North,-999,-999.0,-999.0,-999,-99.99,,,-99.99,,2013-02-25 18:44:00,
2013-02-25 12:49:00,-999.0,-99.9,-100.00,North,-999,-999.0,-999.0,-999,-99.99,,,-99.99,,2013-02-25 18:49:00,
2013-02-25 12:54:00,-999.0,-99.9,-100.00,North,-999,-999.0,-999.0,-999,-99.99,,,-99.99,,2013-02-25 18:54:00,
2013-02-25 12:59:00,-999.0,-99.9,-100.00,North,-999,-999.0,-999.0,-999,-99.99,,,-99.99,,2013-02-25 18:59:00,
2013-02-25 13:04:00,-999.0,-99.9,-100.00,North,-999,-999.0,-999.0,-999,-99.99,,,-99.99,,2013-02-25 19:04:00,
2013-02-25 13:09:00,-999.0,-99.9,-100.00,North,-999,-999.0,-999.0,-999,-99.99,,,-99.99,,2013-02-25 19:09:00,
2013-02-25 13:14:00,-999.0,-99.9,-100.00,North,-999,-999.0,-999.0,-999,-99.99,,,-99.99,,2013-02-25 19:14:00,
2013-02-25 13:19:00,-999.0,-99.9,-100.00,North,-999,-999.0,-999.0,-999,-99.99,,,-99.99,,2013-02-25 19:19:00,
2013-02-25 13:24:00,-999.0,-99.9,-100.00,North,-999,-999.0,-999.0,-999,-99.99,,,-99.99,,2013-02-25 19:24:00,
2013-02-25 13:29:00,-999.0,-99.9,-100.00,North,-999,-999.0,-999.0,-999,-99.99,,,-99.99,,2013-02-25 19:29:00,
2013-02-25 13:34:00,-999.0,-99.9,-100.00,North,-999,-999.0,-999.0,-999,-99.99,,,-99.99,,2013-02-25 19:34:00,
2013-02-25 13:39:00,-999.0,-99.9,-100.00,North,-999,-999.0,-999.0,-999,-99.99,,,-99.99,,2013-02-25 19:39:00,
2013-02-25 13:44:00,-999.0,-99.9,-100.00,North,-999,-999.0,-999.0,-999,-99.99,,,-99.99,,2013-02-25 19:44:00,
2013-02-25 13:49:00,-999.0,-99.9,-100.00,North,-999,-999.0,-999.0,-999,-99.99,,,-99.99,,2013-02-25 19:49:00,
2013-02-25 13:54:00,-999.0,-99.9,-100.00,North,-999,-999.0,-999.0,-999,-99.99,,,-99.99,,2013-02-25 19:54:00,
2013-02-25 13:59:00,-999.0,-99.9,-100.00,North,-999,-999.0,-999.0,-999,-99.99,,,-99.99,,2013-02-25 19:59:00,
2013-02-25 14:04:00,-999.0,-99.9,-100.00,North,-999,-999.0,-999.0,-999,-99.99,,,-99.99,,2013-02-25 20:04:00,
2013-02-25 14:09:00,-999.0,-99.9,-100.00,North,-999,-999.0,-999.0,-999,-99.99,,,-99.99,,2013-02-25 20:09:00,
2013-02-25 14:14:00,-999.0,-99.9,-100.00,North,-999,-999.0,-999.0,-999,-99.99,,,-99.99,,2013-02-25 20:14:00,
2013-02-25 14:19:00,-999.0,-99.9,-100.00,North,-999,-999.0,-999.0,-999,-99.99,,,-99.99,,2013-02-25 20:19:00,
2013-02-25 14:24:00,-999.0,-99.9,-100.00,North,-999,-999.0,-999.0,-999,-99.99,,,-99.99,,2013-02-25 20:24:00,
2013-02-25 14:29:00,-999.0,-99.9,-100.00,North,-999,-999.0,-999.0,-999,-99.99,,,-99.99,,2013-02-25 20:29:00,
2013-02-25 14:34:00,-999.0,-99.9,-100.00,North,-999,-999.0,-999.0,-999,-99.99,,,-99.99,,2013-02-25 20:34:00,
2013-02-25 14:39:00,-999.0,-99.9,-100.00,North,-999,-999.0,-999.0,-999,-99.99,,,-99.99,,2013-02-25 20:39:00,
2013-02-25 14:44:00,-999.0,-99.9,-100.00,North,-999,-999.0,-999.0,-999,-99.99,,,-99.99,,2013-02-25 20:44:00,
2013-02-25 14:49:00,-999.0,-99.9,-100.00,North,-999,-999.0,-999.0,-999,-99.99,,,-99.99,,2013-02-25 20:49:00,
2013-02-25 14:54:00,-999.0,-99.9,-100.00,North,-999,-999.0,-999.0,-999,-99.99,,,-99.99,,2013-02-25 20:54:00,
2013-02-25 14:59:00,-999.0,-99.9,-100.00,North,-999,-999.0,-999.0,-999,-99.99,,,-99.99,,2013-02-25 20:59:00,
2013-02-25 15:04:00,-999.0,-99.9,-100.00,North,-999,-999.0,-999.0,-999,-99.99,,,-99.99,,2013-02-25 21:04:00,
2013-02-25 15:09:00,-999.0,-99.9,-100.00,North,-999,-999.0,-999.0,-999,-99.99,,,-99.99,,2013-02-25 21:09:00,
2013-02-25 15:14:00,-999.0,-99.9,-100.00,North,-999,-999.0,-999.0,-999,-99.99,,,-99.99,,2013-02-25 21:14:00,
2013-02-25 15:19:00,-999.0,-99.9,-100.00,North,-999,-999.0,-999.0,-999,-99.99,,,-99.99,,2013-02-25 21:19:00,
2013-02-25 15:24:00,-999.0,-99.9,-100.00,North,-999,-999.0,-999.0,-999,-99.99,,,-99.99,,2013-02-25 21:24:00,
2013-02-25 15:29:00,-999.0,-99.9,-100.00,North,-999,-999.0,-999.0,-999,-99.99,,,-99.99,,2013-02-25 21:29:00,
2013-02-25 15:34:00,-999.0,-99.9,-100.00,North,-999,-999.0,-999.0,-999,-99.99,,,-99.99,,2013-02-25 21:34:00,
2013-02-25 15:39:00,-999.0,-99.9,-100.00,North,-999,-999.0,-999.0,-999,-99.99,,,-99.99,,2013-02-25 21:39:00,
2013-02-25 15:44:00,-999.0,-99.9,-100.00,North,-999,-999.0,-999.0,-999,-99.99,,,-99.99,,2013-02-25 21:44:00,
2013-02-25 15:49:00,-999.0,-99.9,-100.00,North,-999,-999.0,-999.0,-999,-99.99,,,-99.99,,2013-02-25 21:49:00,
2013-02-25 15:54:00,-999.0,-99.9,-100.00,North,-999,-999.0,-999.0,-999,-99.99,,,-99.99,,2013-02-25 21:54:00,
2013-02-25 15:59:00,-999.0,-99.9,-100.00,North,-999,-999.0,-999.0,-999,-99.99,,,-99.99,,2013-02-25 21:59:00,
2013-02-25 16:05:00,-999.0,-99.9,-100.00,North,-999,-999.0,-999.0,-999,-99.99,,,-99.99,,2013-02-25 22:05:00,
2013-02-25 16:10:00,-999.0,-99.9,-100.00,North,-999,-999.0,-999.0,-999,-99.99,,,-99.99,,2013-02-25 22:10:00,
2013-02-25 16:15:00,-999.0,-99.9,-100.00,North,-999,-999.0,-999.0,-999,-99.99,,,-99.99,,2013-02-25 22:15:00,
2013-02-25 16:20:00,-999.0,-99.9,-100.00,North,-999,-999.0,-999.0,-999,-99.99,,,-99.99,,2013-02-25 22:20:00,
2013-02-25 16:25:00,-999.0,-99.9,-100.00,North,-999,-999.0,-999.0,-999,-99.99,,,-99.99,,2013-02-25 22:25:00,
2013-02-25 16:30:00,-999.0,-99.9,-100.00,North,-999,-999.0,-999.0,-999,-99.99,,,-99.99,,2013-02-25 22:30:00,
2013-02-25 16:35:00,-999.0,-99.9,-100.00,North,-999,-999.0,-999.0,-999,-99.99,,,-99.99,,2013-02-25 22:35:00,
2013-02-25 16:40:00,-999.0,-99.9,-100.00,North,-999,-999.0,-999.0,-999,-99.99,,,-99.99,,2013-02-25 22:40:00,
2013-02-25 16:45:00,-999.0,-99.9,-100.00,North,-999,-999.0,-999.0,-999,-99.99,,,-99.99,,2013-02-25 22:45:00,
2013-02-25 16:50:00,-999.0,-99.9,-100.00,North,-999,-999.0,-999.0,-999,-99.99,,,-99.99,,2013-02-25 22:50:00,
2013-02-25 16:55:00,-999.0,-99.9,-100.00,North,-999,-999.0,-999.0,-999,-99.99,,,-99.99,,2013-02-25 22:55:00,
2013-02-25 17:00:00,-999.0,-99.9,-100.00,North,-999,-999.0,-999.0,-999,-99.99,,,-99.99,,2013-02-25 23:00:00,
2013-02-25 17:05:00,-999.0,-99.9,-100.00,North,-999,-999.0,-999.0,-999,-99.99,,,-99.99,,2013-02-25 23:05:00,
2013-02-25 17:10:00,-999.0,-99.9,-100.00,North,-999,-999.0,-999.0,-999,-99.99,,,-99.99,,2013-02-25 23:10:00,
2013-02-25 17:15:00,-999.0,-99.9,-100.00,North,-999,-999.0,-999.0,-999,-99.99,,,-99.99,,2013-02-25 23:15:00,
2013-02-25 17:20:00,-999.0,-99.9,-100.00,North,-999,-999.0,-999.0,-999,-99.99,,,-99.99,,2013-02-25 23:20:00,
2013-02-25 17:25:00,-999.0,-99.9,-100.00,North,-999,-999.0,-999.0,-999,-99.99,,,-99.99,,2013-02-25 23:25:00,
2013-02-25 17:30:00,-999.0,-99.9,-100.00,North,-999,-999.0,-999.0,-999,-99.99,,,-99.99,,2013-02-25 23:30:00,
2013-02-25 17:35:00,-999.0,-99.9,-100.00,North,-999,-999.0,-999.0,-999,-99.99,,,-99.99,,2013-02-25 23:35:00,
2013-02-25 17:40:00,-999.0,-99.9,-100.00,North,-999,-999.0,-999.0,-999,-99.99,,,-99.99,,2013-02-25 23:40:00,
2013-02-25 17:45:00,-999.0,-99.9,-100.00,North,-999,-999.0,-999.0,-999,-99.99,,,-99.99,,2013-02-25 23:45:00,
2013-02-25 17:50:00,-999.0,-99.9,-100.00,North,-999,-999.0,-999.0,-999,-99.99,,,-99.99,,2013-02-25 23:50:00,
2013-02-25 17:55:00,-999.0,-99.9,-100.00,North,-999,-999.0,-999.0,-999,-99.99,,,-99.99,,2013-02-25 23:55:00,
2013-02-25 18:00:00,-999.0,-99.9,-100.00,North,-999,-999.0,-999.0,-999,-99.99,,,-99.99,,2013-02-26 00:00:00,
2013-02-25 18:05:00,-999.0,-99.9,-100.00,North,-999,-999.0,-999.0,-999,-99.99,,,-99.99,,2013-02-26 00:05:00,
2013-02-25 18:10:00,-999.0,-99.9,-100.00,North,-999,-999.0,-999.0,-999,-99.99,,,-99.99,,2013-02-26 00:10:00,
2013-02-25 18:15:00,-999.0,-99.9,-100.00,North,-999,-999.0,-999.0,-999,-99.99,,,-99.99,,2013-02-26 00:15:00,
2013-02-25 18:20:00,-999.0,-99.9,-100.00,North,-999,-999.0,-999.0,-999,-99.99,,,-99.99,,2013-02-26 00:20:00,
2013-02-25 18:25:00,-999.0,-99.9,-100.00,North,-999,-999.0,-999.0,-999,-99.99,,,-99.99,,2013-02-26 00:25:00,
2013-02-25 18:30:00,-999.0,-99.9,-100.00,North,-999,-999.0,-999.0,-999,-99.99,,,-99.99,,2013-02-26 00:30:00,
2013-02-25 18:35:00,-999.0,-99.9,-100.00,North,-999,-999.0,-999.0,-999,-99.99,,,-99.99,,2013-02-26 00:35:00,
2013-02-25 18:40:00,-999.0,-99.9,-100.00,North,-999,-999.0,-999.0,-999,-99.99,,,-99.99,,2013-02-26 00:40:00,
2013-02-25 18:45:00,-999.0,-99.9,-100.00,North,-999,-999.0,-999.0,-999,-99.99,,,-99.99,,2013-02-26 00:45:00,
2013-02-25 18:51:00,-999.0,-99.9,-100.00,North,-999,-999.0,-999.0,-999,-99.99,,,-99.99,,2013-02-26 00:51:00,
2013-02-25 18:56:00,-999.0,-99.9,-100.00,North,-999,-999.0,-999.0,-999,-99.99,,,-99.99,,2013-02-26 00:56:00,
2013-02-25 19:01:00,-999.0,-99.9,-100.00,North,-999,-999.0,-999.0,-999,-99.99,,,-99.99,,2013-02-26 01:01:00,
2013-02-25 19:06:00,-999.0,-99.9,-100.00,North,-999,-999.0,-999.0,-999,-99.99,,,-99.99,,2013-02-26 01:06:00,
2013-02-25 19:11:00,-999.0,-99.9,-100.00,North,-999,-999.0,-999.0,-999,-99.99,,,-99.99,,2013-02-26 01:11:00,
2013-02-25 19:16:00,-999.0,-99.9,-100.00,North,-999,-999.0,-999.0,-999,-99.99,,,-99.99,,2013-02-26 01:16:00,
2013-02-25 19:21:00,-999.0,-99.9,-100.00,North,-999,-999.0,-999.0,-999,-99.99,,,-99.99,,2013-02-26 01:21:00,
2013-02-25 19:26:00,-999.0,-99.9,-100.00,North,-999,-999.0,-999.0,-999,-99.99,,,-99.99,,2013-02-26 01:26:00,
2013-02-25 19:31:00,-999.0,-99.9,-100.00,North,-999,-999.0,-999.0,-999,-99.99,,,-99.99,,2013-02-26 01:31:00,
2013-02-25 19:36:00,-999.0,-99.9,-100.00,North,-999,-999.0,-999.0,-999,-99.99,,,-99.99,,2013-02-26 01:36:00,
2013-02-25 19:41:00,-999.0,-99.9,-100.00,North,-999,-999.0,-999.0,-999,-99.99,,,-99.99,,2013-02-26 01:41:00,
2013-02-25 19:46:00,-999.0,-99.9,-100.00,North,-999,-999.0,-999.0,-999,-99.99,,,-99.99,,2013-02-26 01:46:00,
2013-02-25 19:51:00,-999.0,-99.9,-100.00,North,-999,-999.0,-999.0,-999,-99.99,,,-99.99,,2013-02-26 01:51:00,
2013-02-25 19:56:00,-999.0,-99.9,-100.00,North,-999,-999.0,-999.0,-999,-99.99,,,-99.99,,2013-02-26 01:56:00,
2013-02-25 20:01:00,-999.0,-99.9,-100.00,North,-999,-999.0,-999.0,-999,-99.99,,,-99.99,,2013-02-26 02:01:00,
2013-02-25 20:06:00,-999.0,-99.9,-100.00,North,-999,-999.0,-999.0,-999,-99.99,,,-99.99,,2013-02-26 02:06:00,
2013-02-25 20:11:00,-999.0,-99.9,-100.00,North,-999,-999.0,-999.0,-999,-99.99,,,-99.99,,2013-02-26 02:11:00,
2013-02-25 20:16:00,-999.0,-99.9,-100.00,North,-999,-999.0,-999.0,-999,-99.99,,,-99.99,,2013-02-26 02:16:00,
2013-02-25 20:21:00,-999.0,-99.9,-100.00,North,-999,-999.0,-999.0,-999,-99.99,,,-99.99,,2013-02-26 02:21:00,
2013-02-25 20:26:00,-999.0,-99.9,-100.00,North,-999,-999.0,-999.0,-999,-99.99,,,-99.99,,2013-02-26 02:26:00,
2013-02-25 20:31:00,-999.0,-99.9,-100.00,North,-999,-999.0,-999.0,-999,-99.99,,,-99.99,,2013-02-26 02:31:00,
2013-02-25 20:36:00,-999.0,-99.9,-100.00,North,-999,-999.0,-999.0,-999,-99.99,,,-99.99,,2013-02-26 02:36:00,
2013-02-25 20:41:00,-999.0,-99.9,-100.00,North,-999,-999.0,-999.0,-999,-99.99,,,-99.99,,2013-02-26 02:41:00,
2013-02-25 20:46:00,-999.0,-99.9,-100.00,North,-999,-999.0,-999.0,-999,-99.99,,,-99.99,,2013-02-26 02:46:00,
2013-02-25 20:51:00,-999.0,-99.9,-100.00,North,-999,-999.0,-999.0,-999,-99.99,,,-99.99,,2013-02-26 02:51:00,
2013-02-25 20:56:00,-999.0,-99.9,-100.00,North,-999,-999.0,-999.0,-999,-99.99,,,-99.99,,2013-02-26 02:56:00,
2013-02-25 21:01:00,-999.0,-99.9,-100.00,North,-999,-999.0,-999.0,-999,-99.99,,,-99.99,,2013-02-26 03:01:00,
2013-02-25 21:06:00,-999.0,-99.9,-100.00,North,-999,-999.0,-999.0,-999,-99.99,,,-99.99,,2013-02-26 03:06:00,
2013-02-25 21:11:00,-999.0,-99.9,-100.00,North,-999,-999.0,-999.0,-999,-99.99,,,-99.99,,2013-02-26 03:11:00,
2013-02-25 21:16:00,-999.0,-99.9,-100.00,North,-999,-999.0,-999.0,-999,-99.99,,,-99.99,,2013-02-26 03:16:00,
2013-02-25 21:21:00,-999.0,-99.9,-100.00,North,-999,-999.0,-999.0,-999,-99.99,,,-99.99,,2013-02-26 03:21:00,
2013-02-25 21:26:00,-999.0,-99.9,-100.00,North,-999,-999.0,-999.0,-999,-99.99,,,-99.99,,2013-02-26 03:26:00,
2013-02-25 21:31:00,-999.0,-99.9,-100.00,North,-999,-999.0,-999.0,-999,-99.99,,,-99.99,,2013-02-26 03:31:00,
2013-02-25 21:36:00,-999.0,-99.9,-100.00,North,-999,-999.0,-999.0,-999,-99.99,,,-99.99,,2013-02-26 03:36:00,
2013-02-25 21:41:00,-999.0,-99.9,-100.00,North,-999,-999.0,-999.0,-999,-99.99,,,-99.99,,2013-02-26 03:41:00,
2013-02-25 21:46:00,-999.0,-99.9,-100.00,North,-999,-999.0,-999.0,-999,-99.99,,,-99.99,,2013-02-26 03:46:00,
2013-02-25 21:51:00,-999.0,-99.9,-100.00,North,-999,-999.0,-999.0,-999,-99.99,,,-99.99,,2013-02-26 03:51:00,
2013-02-25 21:56:00,-999.0,-99.9,-100.00,North,-999,-999.0,-999.0,-999,-99.99,,,-99.99,,2013-02-26 03:56:00,
2013-02-25 22:01:00,-999.0,-99.9,-100.00,North,-999,-999.0,-999.0,-999,-99.99,,,-99.99,,2013-02-26 04:01:00,
2013-02-25 22:07:00,-999.0,-99.9,-100.00,North,-999,-999.0,-999.0,-999,0.00,,,0.00,,2013-02-26 04:07:00,
2013-02-25 22:12:00,-999.0,-99.9,-100.00,North,-999,-999.0,-999.0,-999,0.00,,,0.00,,2013-02-26 04:12:00,